createdAt,value
2018-12-18T00:02:03.662Z,9.70
2018-12-18T00:04:30.296Z,11.00
2018-12-18T00:06:56.954Z,13.73
2018-12-18T00:09:23.797Z,10.30
2018-12-18T00:11:50.416Z,10.63
2018-12-18T00:14:17.072Z,9.30
2018-12-18T00:16:43.712Z,10.33
2018-12-18T00:19:10.345Z,11.73
2018-12-18T00:21:36.988Z,11.23
2018-12-18T00:24:03.636Z,10.23
2018-12-18T00:26:30.241Z,8.20
2018-12-18T00:28:56.912Z,8.00
2018-12-18T00:31:23.748Z,8.37
2018-12-18T00:33:50.376Z,7.53
2018-12-18T00:36:16.993Z,12.23
2018-12-18T00:38:43.665Z,9.80
2018-12-18T00:41:10.296Z,9.40
2018-12-18T00:43:36.944Z,6.53
2018-12-18T00:46:03.624Z,8.73
2018-12-18T00:48:30.324Z,9.67
2018-12-18T00:50:56.964Z,8.83
2018-12-18T00:53:23.609Z,8.73
2018-12-18T00:55:50.241Z,9.37
2018-12-18T00:58:16.884Z,10.20
2018-12-18T01:00:43.524Z,7.77
2018-12-18T01:03:10.163Z,8.20
2018-12-18T01:05:36.796Z,8.70
2018-12-18T01:08:03.424Z,8.67
2018-12-18T01:10:30.139Z,7.43
2018-12-18T01:12:56.824Z,13.80
2018-12-18T01:15:23.557Z,9.10
2018-12-18T01:17:50.198Z,10.70
2018-12-18T01:20:16.935Z,8.53
2018-12-18T01:22:43.581Z,10.93
2018-12-18T01:25:10.208Z,6.33
2018-12-18T01:27:36.839Z,5.10
2018-12-18T01:30:04.111Z,8.50
2018-12-18T01:32:30.719Z,8.13
2018-12-18T01:34:57.388Z,7.47
2018-12-18T01:37:24.001Z,5.40
2018-12-18T01:39:50.664Z,8.53
2018-12-18T01:42:17.268Z,7.40
2018-12-18T01:44:43.907Z,8.30
2018-12-18T01:47:10.585Z,7.60
2018-12-18T01:49:37.220Z,7.40
2018-12-18T01:52:03.831Z,7.60
2018-12-18T01:54:30.496Z,9.83
2018-12-18T01:56:57.136Z,6.70
2018-12-18T01:59:23.813Z,12.03
2018-12-18T02:01:50.420Z,5.60
2018-12-18T02:04:17.024Z,6.60
2018-12-18T02:06:43.701Z,7.50
2018-12-18T02:09:10.332Z,10.93
2018-12-18T02:11:36.957Z,8.03
2018-12-18T02:14:03.946Z,10.40
2018-12-18T02:16:30.564Z,7.77
2018-12-18T02:18:57.300Z,7.30
2018-12-18T02:21:23.941Z,7.63
2018-12-18T02:23:50.568Z,5.57
2018-12-18T02:26:17.172Z,6.90
2018-12-18T02:28:43.800Z,7.33
2018-12-18T02:31:10.407Z,7.40
2018-12-18T02:33:37.137Z,6.20
2018-12-18T02:36:03.885Z,9.87
2018-12-18T02:38:30.512Z,9.47
2018-12-18T02:40:57.155Z,7.07
2018-12-18T02:43:23.788Z,6.80
2018-12-18T02:45:50.428Z,5.80
2018-12-18T02:48:17.689Z,4.43
2018-12-18T02:50:44.372Z,4.50
2018-12-18T02:53:11.005Z,4.80
2018-12-18T02:55:37.659Z,4.07
2018-12-18T02:58:04.297Z,5.67
2018-12-18T03:00:30.981Z,8.83
2018-12-18T03:02:57.622Z,6.13
2018-12-18T03:05:24.253Z,4.77
2018-12-18T03:07:50.917Z,7.03
2018-12-18T03:10:17.642Z,4.83
2018-12-18T03:12:44.268Z,5.93
2018-12-18T03:15:10.913Z,5.73
2018-12-18T03:17:37.757Z,4.67
2018-12-18T03:20:05.829Z,5.07
2018-12-18T03:22:32.477Z,7.00
2018-12-18T03:24:59.116Z,10.70
2018-12-18T03:27:25.748Z,7.20
2018-12-18T03:29:52.359Z,6.73
2018-12-18T03:32:19.943Z,5.53
2018-12-18T03:34:46.549Z,6.23
2018-12-18T03:37:13.192Z,4.13
2018-12-18T03:39:39.816Z,9.17
2018-12-18T03:42:06.449Z,4.50
2018-12-18T03:44:33.048Z,7.23
2018-12-18T03:46:59.685Z,5.43
2018-12-18T03:49:26.322Z,6.33
2018-12-18T03:51:52.952Z,4.40
2018-12-18T03:54:19.588Z,6.90
2018-12-18T03:56:46.236Z,8.00
2018-12-18T03:59:12.872Z,7.20
2018-12-18T04:01:39.508Z,8.10
2018-12-18T04:04:06.135Z,5.10
2018-12-18T04:06:32.791Z,7.17
2018-12-18T04:08:59.472Z,9.07
2018-12-18T04:11:26.076Z,7.83
2018-12-18T04:13:52.806Z,7.30
2018-12-18T04:16:19.429Z,6.90
2018-12-18T04:18:46.096Z,7.70
2018-12-18T04:21:12.728Z,4.67
2018-12-18T04:23:39.360Z,5.00
2018-12-18T04:26:05.999Z,7.47
2018-12-18T04:28:32.632Z,7.97
2018-12-18T04:30:59.248Z,7.63
2018-12-18T04:33:25.920Z,5.57
2018-12-18T04:35:52.532Z,9.50
2018-12-18T04:38:19.162Z,7.47
2018-12-18T04:40:45.761Z,7.27
2018-12-18T04:43:12.483Z,5.73
2018-12-18T04:45:39.116Z,6.23
2018-12-18T04:48:05.766Z,7.93
2018-12-18T04:50:32.369Z,9.63
2018-12-18T04:52:59.032Z,4.13
2018-12-18T04:55:25.685Z,6.30
2018-12-18T04:57:52.379Z,5.50
2018-12-18T05:00:19.024Z,8.23
2018-12-18T05:02:45.626Z,3.70
2018-12-18T05:05:12.338Z,5.23
2018-12-18T05:07:38.940Z,6.43
2018-12-18T05:10:05.592Z,4.73
2018-12-18T05:12:32.232Z,3.70
2018-12-18T05:14:58.885Z,3.30
2018-12-18T05:17:25.527Z,8.60
2018-12-18T05:19:52.160Z,5.57
2018-12-18T05:22:18.793Z,4.43
2018-12-18T05:24:45.442Z,8.00
2018-12-18T05:27:12.080Z,8.70
2018-12-18T05:29:38.721Z,8.83
2018-12-18T05:32:05.365Z,9.60
2018-12-18T05:34:31.988Z,8.23
2018-12-18T05:36:58.632Z,8.20
2018-12-18T05:39:25.481Z,5.23
2018-12-18T05:41:52.120Z,8.83
2018-12-18T05:44:18.728Z,5.67
2018-12-18T05:46:45.360Z,6.60
2018-12-18T05:49:12.040Z,6.97
2018-12-18T05:51:38.676Z,6.30
2018-12-18T05:54:05.317Z,6.13
2018-12-18T05:56:32.011Z,7.37
2018-12-18T05:58:58.712Z,5.70
2018-12-18T06:01:25.332Z,5.50
2018-12-18T06:03:51.965Z,7.80
2018-12-18T06:06:18.576Z,7.27
2018-12-18T06:08:45.251Z,7.20
2018-12-18T06:11:11.886Z,8.60
2018-12-18T06:13:38.494Z,4.37
2018-12-18T06:16:05.124Z,5.07
2018-12-18T06:18:31.736Z,7.73
2018-12-18T06:20:58.443Z,5.37
2018-12-18T06:23:25.045Z,6.10
2018-12-18T06:25:51.673Z,3.43
2018-12-18T06:28:18.360Z,4.87
2018-12-18T06:30:45.001Z,6.53
2018-12-18T06:33:11.637Z,5.07
2018-12-18T06:35:38.264Z,7.90
2018-12-18T06:38:04.896Z,5.47
2018-12-18T06:40:31.529Z,5.90
2018-12-18T06:42:58.415Z,7.37
2018-12-18T06:45:25.452Z,5.90
2018-12-18T06:47:52.100Z,6.10
2018-12-18T06:50:18.929Z,4.90
2018-12-18T06:52:45.537Z,4.63
2018-12-18T06:55:12.313Z,3.13
2018-12-18T06:57:38.953Z,4.37
2018-12-18T07:00:07.533Z,4.23
2018-12-18T07:02:34.145Z,6.73
2018-12-18T07:05:01.740Z,6.97
2018-12-18T07:07:29.139Z,5.90
2018-12-18T07:09:56.036Z,6.30
2018-12-18T07:12:22.675Z,4.73
2018-12-18T07:14:49.278Z,5.37
2018-12-18T07:17:15.889Z,7.17
2018-12-18T07:19:42.595Z,4.70
2018-12-18T07:22:09.220Z,7.80
2018-12-18T07:24:35.869Z,5.00
2018-12-18T07:27:02.512Z,8.33
2018-12-18T07:29:29.125Z,7.00
2018-12-18T07:31:55.761Z,9.17
2018-12-18T07:34:22.384Z,7.67
2018-12-18T07:36:48.994Z,5.93
2018-12-18T07:39:15.706Z,5.07
2018-12-18T07:41:42.346Z,5.03
2018-12-18T07:44:08.972Z,6.40
2018-12-18T07:46:35.717Z,6.77
2018-12-18T07:49:02.367Z,5.30
2018-12-18T07:51:29.007Z,8.40
2018-12-18T07:53:55.726Z,5.33
2018-12-18T07:56:22.337Z,6.90
2018-12-18T07:58:49.020Z,8.13
2018-12-18T08:01:15.659Z,9.20
2018-12-18T08:03:42.412Z,4.77
2018-12-18T08:06:09.039Z,5.40
2018-12-18T08:08:35.681Z,11.37
2018-12-18T08:11:02.346Z,10.50
2018-12-18T08:13:29.053Z,6.20
2018-12-18T08:15:55.699Z,5.70
2018-12-18T08:18:22.340Z,12.40
2018-12-18T08:20:48.957Z,6.80
2018-12-18T08:23:15.557Z,4.57
2018-12-18T08:25:42.253Z,6.70
2018-12-18T08:28:08.876Z,16.57
2018-12-18T08:30:35.504Z,19.60
2018-12-18T08:33:02.480Z,13.80
2018-12-18T08:35:29.163Z,10.10
2018-12-18T08:37:55.864Z,38.83
2018-12-18T08:40:22.505Z,22.80
2018-12-18T08:42:49.137Z,17.10
2018-12-18T08:45:15.765Z,13.90
2018-12-18T08:47:42.827Z,22.70
2018-12-18T08:50:10.420Z,18.37
2018-12-18T08:52:37.053Z,17.10
2018-12-18T08:55:03.871Z,19.60
2018-12-18T08:57:30.491Z,17.12
2018-12-18T08:59:57.129Z,18.90
2018-12-18T09:02:23.749Z,19.07
2018-12-18T09:04:50.425Z,20.97
2018-12-18T09:07:17.155Z,19.90
2018-12-18T09:09:43.789Z,17.47
2018-12-18T09:12:12.378Z,20.47
2018-12-18T09:14:41.000Z,25.40
2018-12-18T09:17:07.723Z,22.03
2018-12-18T09:19:34.368Z,31.17
2018-12-18T09:22:01.302Z,21.47
2018-12-18T09:24:27.917Z,24.20
2018-12-18T09:26:54.549Z,22.10
2018-12-18T09:29:21.165Z,22.43
2018-12-18T09:31:47.855Z,20.00
2018-12-18T09:34:14.468Z,13.80
2018-12-18T09:36:41.101Z,11.63
2018-12-18T09:39:13.583Z,13.80
2018-12-18T09:41:40.307Z,15.47
2018-12-18T09:44:07.302Z,18.03
2018-12-18T09:46:33.944Z,15.77
2018-12-18T09:49:00.612Z,18.03
2018-12-18T09:51:27.234Z,18.23
2018-12-18T09:53:53.940Z,14.67
2018-12-18T09:56:20.596Z,24.57
2018-12-18T09:58:47.336Z,18.00
2018-12-18T10:01:13.956Z,23.57
2018-12-18T10:03:40.608Z,22.93
2018-12-18T10:06:07.249Z,16.13
2018-12-18T10:08:33.897Z,18.33
2018-12-18T10:11:00.531Z,18.97
2018-12-18T10:13:27.407Z,19.70
2018-12-18T10:15:54.045Z,22.80
2018-12-18T10:18:20.666Z,19.60
2018-12-18T10:20:47.296Z,19.70
2018-12-18T10:23:14.028Z,26.40
2018-12-18T10:25:40.680Z,22.87
2018-12-18T10:28:07.387Z,26.53
2018-12-18T10:30:34.027Z,20.70
2018-12-18T10:33:03.562Z,23.57
2018-12-18T10:35:36.512Z,23.00
2018-12-18T10:37:59.745Z,22.90
2018-12-18T10:40:26.366Z,23.70
2018-12-18T10:42:52.997Z,27.83
2018-12-18T10:45:19.721Z,26.23
2018-12-18T10:47:46.388Z,27.80
2018-12-18T10:50:13.031Z,28.07
2018-12-18T10:52:39.668Z,27.60
2018-12-18T10:55:06.385Z,24.90
2018-12-18T10:57:33.136Z,26.87
2018-12-18T10:59:59.760Z,27.50
2018-12-18T11:02:26.408Z,27.93
2018-12-18T11:04:53.017Z,20.60
2018-12-18T11:07:19.654Z,18.60
2018-12-18T11:09:46.288Z,25.07
2018-12-18T11:12:14.871Z,16.07
2018-12-18T11:14:41.496Z,21.33
2018-12-18T11:17:08.138Z,16.40
2018-12-18T11:19:34.753Z,20.90
2018-12-18T11:22:01.992Z,23.00
2018-12-18T11:24:28.617Z,14.90
2018-12-18T11:26:55.232Z,18.50
2018-12-18T11:29:21.888Z,20.23
2018-12-18T11:31:48.500Z,16.63
2018-12-18T11:34:15.144Z,16.40
2018-12-18T11:36:41.752Z,18.10
2018-12-18T11:39:08.396Z,11.13
2018-12-18T11:41:35.012Z,12.30
2018-12-18T11:44:02.244Z,17.90
2018-12-18T11:46:28.976Z,12.13
2018-12-18T11:48:55.638Z,11.77
2018-12-18T11:51:22.353Z,10.37
2018-12-18T11:53:49.023Z,11.47
2018-12-18T11:56:15.632Z,10.30
2018-12-18T11:58:42.305Z,8.50
2018-12-18T12:01:09.109Z,12.10
2018-12-18T12:03:35.724Z,9.30
2018-12-18T12:06:02.837Z,5.67
2018-12-18T12:08:30.460Z,8.70
2018-12-18T12:10:57.073Z,7.87
2018-12-18T12:13:23.736Z,10.80
2018-12-18T12:15:50.381Z,6.40
2018-12-18T12:18:16.993Z,8.00
2018-12-18T12:20:43.637Z,11.53
2018-12-18T12:23:10.256Z,7.83
2018-12-18T12:25:36.893Z,6.87
2018-12-18T12:28:05.647Z,11.60
2018-12-18T12:30:33.005Z,11.53
2018-12-18T12:32:59.633Z,12.53
2018-12-18T12:35:26.318Z,10.73
2018-12-18T12:37:53.002Z,10.87
2018-12-18T12:40:19.631Z,11.90
2018-12-18T12:42:46.287Z,16.20
2018-12-18T12:45:13.015Z,19.73
2018-12-18T12:47:39.654Z,11.67
2018-12-18T12:50:06.649Z,16.23
2018-12-18T12:52:33.337Z,16.20
2018-12-18T12:54:59.977Z,11.77
2018-12-18T12:57:26.790Z,18.20
2018-12-18T12:59:53.436Z,14.40
2018-12-18T13:02:20.049Z,14.50
2018-12-18T13:04:46.688Z,17.67
2018-12-18T13:07:13.310Z,26.57
2018-12-18T13:09:39.920Z,20.20
2018-12-18T13:12:06.560Z,20.53
2018-12-18T13:14:33.209Z,23.47
2018-12-18T13:17:00.319Z,20.03
2018-12-18T13:19:27.422Z,23.93
2018-12-18T13:21:54.089Z,24.50
2018-12-18T13:24:21.219Z,20.53
2018-12-18T13:26:47.888Z,20.73
2018-12-18T13:29:14.517Z,29.30
2018-12-18T13:31:41.153Z,19.40
2018-12-18T13:34:07.781Z,15.57
2018-12-18T13:36:34.398Z,20.07
2018-12-18T13:39:01.628Z,16.00
2018-12-18T13:41:28.253Z,16.47
2018-12-18T13:43:54.906Z,15.63
2018-12-18T13:46:21.652Z,14.80
2018-12-18T13:48:48.271Z,16.63
2018-12-18T13:51:14.915Z,21.77
2018-12-18T13:53:41.528Z,15.07
2018-12-18T13:56:08.169Z,19.13
2018-12-18T13:58:34.844Z,19.90
2018-12-18T14:01:02.113Z,24.90
2018-12-18T14:03:28.749Z,25.20
2018-12-18T14:05:55.455Z,20.53
2018-12-18T14:08:22.157Z,30.30
2018-12-18T14:10:48.860Z,21.37
2018-12-18T14:13:15.505Z,37.03
2018-12-18T14:15:42.149Z,29.93
2018-12-18T14:18:08.876Z,25.03
2018-12-18T14:20:35.492Z,32.07
2018-12-18T14:23:02.369Z,39.00
2018-12-18T14:25:28.985Z,23.37
2018-12-18T14:27:55.606Z,18.47
2018-12-18T14:30:22.249Z,23.30
2018-12-18T14:32:49.022Z,28.60
2018-12-18T14:35:15.667Z,22.70
2018-12-18T14:37:42.288Z,26.53
2018-12-18T14:40:08.941Z,28.63
2018-12-18T14:42:35.584Z,24.13
2018-12-18T14:45:02.320Z,22.13
2018-12-18T14:47:28.962Z,27.70
2018-12-18T14:49:55.640Z,28.93
2018-12-18T14:52:22.292Z,20.87
2018-12-18T14:54:48.904Z,37.43
2018-12-18T14:57:15.546Z,22.30
2018-12-18T14:59:42.170Z,32.67
2018-12-18T15:02:08.818Z,22.20
2018-12-18T15:04:35.541Z,18.47
2018-12-18T15:07:02.937Z,20.70
2018-12-18T15:09:29.914Z,24.87
2018-12-18T15:11:56.552Z,19.30
2018-12-18T15:14:23.171Z,17.87
2018-12-18T15:16:49.796Z,18.23
2018-12-18T15:19:16.540Z,17.23
2018-12-18T15:21:43.229Z,20.43
2018-12-18T15:24:09.901Z,16.13
2018-12-18T15:26:36.613Z,21.43
2018-12-18T15:29:03.252Z,16.47
2018-12-18T15:31:29.896Z,16.00
2018-12-18T15:33:56.542Z,15.10
2018-12-18T15:36:23.156Z,16.73
2018-12-18T15:38:49.808Z,16.23
2018-12-18T15:41:16.456Z,15.60
2018-12-18T15:43:43.084Z,13.30
2018-12-18T15:46:09.828Z,17.23
2018-12-18T15:48:36.477Z,16.10
2018-12-18T15:51:03.107Z,12.53
2018-12-18T15:53:29.731Z,12.73
2018-12-18T15:55:56.378Z,12.50
2018-12-18T15:58:23.019Z,11.80
2018-12-18T16:00:49.649Z,20.70
2018-12-18T16:03:17.120Z,16.37
2018-12-18T16:05:43.903Z,13.47
2018-12-18T16:08:10.533Z,11.90
2018-12-18T16:10:37.148Z,9.47
2018-12-18T16:13:03.788Z,12.27
2018-12-18T16:15:30.404Z,14.87
2018-12-18T16:17:57.058Z,17.87
2018-12-18T16:20:23.676Z,10.27
2018-12-18T16:22:50.313Z,20.50
2018-12-18T16:25:16.947Z,13.37
2018-12-18T16:27:43.589Z,12.13
2018-12-18T16:30:10.225Z,11.70
2018-12-18T16:32:36.884Z,11.40
2018-12-18T16:35:03.580Z,15.07
2018-12-18T16:37:30.273Z,12.87
2018-12-18T16:39:56.908Z,9.13
2018-12-18T16:42:23.546Z,12.20
2018-12-18T16:44:50.156Z,16.53
2018-12-18T16:47:16.801Z,12.77
2018-12-18T16:49:43.464Z,15.17
2018-12-18T16:52:10.438Z,39.00
2018-12-18T16:54:37.201Z,17.50
2018-12-18T16:57:03.900Z,37.40
2018-12-18T16:59:30.523Z,32.23
2018-12-18T17:01:57.156Z,29.37
2018-12-18T17:04:23.801Z,42.27
2018-12-18T17:06:50.874Z,42.10
2018-12-18T17:09:18.464Z,29.90
2018-12-18T17:11:45.109Z,90.47
2018-12-18T17:14:11.796Z,95.30
2018-12-18T17:16:38.445Z,114.07
2018-12-18T17:19:05.180Z,153.40
2018-12-18T17:21:31.817Z,136.70
2018-12-18T17:23:58.461Z,80.17
2018-12-18T17:26:25.079Z,60.50
2018-12-18T17:28:51.718Z,40.90
2018-12-18T17:31:18.348Z,53.20
2018-12-18T17:33:45.012Z,36.20
2018-12-18T17:36:11.748Z,36.03
2018-12-18T17:38:38.392Z,56.13
2018-12-18T17:41:05.008Z,25.30
2018-12-18T17:43:31.997Z,40.77
2018-12-18T17:45:58.608Z,12.43
2018-12-18T17:48:25.260Z,27.33
2018-12-18T17:50:51.869Z,29.57
2018-12-18T17:53:18.521Z,17.97
2018-12-18T17:55:45.175Z,14.37
2018-12-18T17:58:11.807Z,31.40
2018-12-18T18:00:38.631Z,14.37
2018-12-18T18:03:05.244Z,12.93
2018-12-18T18:05:31.936Z,16.90
2018-12-18T18:07:58.559Z,15.47
2018-12-18T18:10:25.208Z,12.93
2018-12-18T18:12:53.796Z,12.03
2018-12-18T18:15:20.433Z,12.80
2018-12-18T18:17:47.073Z,11.83
2018-12-18T18:20:13.860Z,20.77
2018-12-18T18:22:40.504Z,16.33
2018-12-18T18:25:07.170Z,16.23
2018-12-18T18:27:33.820Z,12.10
2018-12-18T18:30:00.907Z,24.00
2018-12-18T18:32:27.719Z,17.97
2018-12-18T18:34:54.324Z,25.43
2018-12-18T18:37:21.133Z,20.73
2018-12-18T18:39:47.765Z,18.70
2018-12-18T18:42:14.380Z,33.17
2018-12-18T18:44:41.015Z,31.43
2018-12-18T18:47:07.665Z,25.70
2018-12-18T18:49:34.309Z,20.90
2018-12-18T18:52:01.316Z,13.93
2018-12-18T18:54:28.322Z,8.40
2018-12-18T18:56:55.144Z,11.70
2018-12-18T18:59:21.752Z,13.07
2018-12-18T19:01:48.392Z,18.20
2018-12-18T19:04:15.032Z,14.50
2018-12-18T19:06:41.652Z,19.40
2018-12-18T19:09:08.286Z,25.93
2018-12-18T19:11:34.912Z,13.77
2018-12-18T19:14:01.937Z,14.27
2018-12-18T19:16:28.659Z,15.93
2018-12-18T19:18:55.295Z,13.27
2018-12-18T19:21:21.933Z,14.50
2018-12-18T19:23:48.573Z,9.97
2018-12-18T19:26:15.225Z,13.80
2018-12-18T19:28:41.861Z,12.47
2018-12-18T19:31:08.489Z,9.90
2018-12-18T19:33:36.924Z,11.20
2018-12-18T19:36:03.781Z,7.93
2018-12-18T19:38:30.429Z,10.77
2018-12-18T19:40:57.096Z,9.73
2018-12-18T19:43:23.702Z,11.87
2018-12-18T19:45:50.345Z,13.43
2018-12-18T19:48:16.987Z,11.20
2018-12-18T19:50:43.589Z,7.67
2018-12-18T19:53:10.288Z,9.97
2018-12-18T19:55:36.933Z,9.87
2018-12-18T19:58:03.561Z,7.50
2018-12-18T20:00:30.197Z,7.80
2018-12-18T20:02:56.836Z,10.30
2018-12-18T20:05:23.484Z,9.17
2018-12-18T20:07:50.225Z,11.07
2018-12-18T20:10:16.836Z,10.17
2018-12-18T20:12:43.486Z,9.87
2018-12-18T20:15:10.136Z,9.33
2018-12-18T20:17:36.779Z,11.00
2018-12-18T20:20:04.544Z,10.10
2018-12-18T20:22:31.438Z,12.07
2018-12-18T20:24:58.108Z,8.73
2018-12-18T20:27:24.720Z,10.23
2018-12-18T20:29:51.400Z,11.50
2018-12-18T20:32:18.052Z,16.27
2018-12-18T20:34:44.661Z,14.20
2018-12-18T20:37:11.277Z,14.07
2018-12-18T20:39:37.931Z,15.47
2018-12-18T20:42:04.595Z,12.60
2018-12-18T20:44:31.244Z,15.73
2018-12-18T20:46:57.872Z,16.30
2018-12-18T20:49:24.521Z,12.10
2018-12-18T20:51:51.158Z,12.37
2018-12-18T20:54:17.792Z,16.83
2018-12-18T20:56:44.445Z,11.47
2018-12-18T20:59:11.049Z,12.40
2018-12-18T21:01:39.023Z,12.17
2018-12-18T21:04:05.636Z,13.07
2018-12-18T21:06:32.320Z,9.73
2018-12-18T21:08:58.956Z,11.40
2018-12-18T21:11:25.594Z,12.10
2018-12-18T21:13:52.232Z,14.30
2018-12-18T21:16:18.864Z,11.97
2018-12-18T21:18:45.525Z,15.77
2018-12-18T21:21:15.393Z,13.87
2018-12-18T21:23:40.800Z,13.00
2018-12-18T21:26:07.452Z,13.00
2018-12-18T21:28:34.113Z,11.40
2018-12-18T21:31:00.744Z,11.53
2018-12-18T21:33:27.384Z,14.33
2018-12-18T21:35:54.004Z,14.70
2018-12-18T21:38:20.636Z,10.57
2018-12-18T21:40:47.244Z,12.70
2018-12-18T21:43:13.898Z,11.83
2018-12-18T21:45:40.504Z,13.77
2018-12-18T21:48:07.124Z,12.37
2018-12-18T21:50:33.921Z,14.40
2018-12-18T21:53:00.538Z,12.57
2018-12-18T21:55:27.168Z,13.70
2018-12-18T21:57:53.888Z,12.77
2018-12-18T22:00:20.501Z,14.00
2018-12-18T22:02:47.139Z,15.03
2018-12-18T22:05:13.769Z,16.00
2018-12-18T22:07:40.427Z,14.17
2018-12-18T22:10:07.210Z,15.20
2018-12-18T22:12:33.851Z,15.97
2018-12-18T22:15:00.493Z,13.13
2018-12-18T22:17:27.116Z,17.77
2018-12-18T22:19:53.756Z,15.50
2018-12-18T22:22:20.381Z,15.17
2018-12-18T22:24:47.018Z,14.33
2018-12-18T22:27:13.629Z,15.23
2018-12-18T22:29:40.264Z,15.50
2018-12-18T22:32:06.913Z,15.23
2018-12-18T22:34:33.676Z,15.87
2018-12-18T22:37:00.317Z,15.73
2018-12-18T22:39:26.955Z,14.30
2018-12-18T22:41:53.572Z,17.70
2018-12-18T22:44:20.241Z,17.43
2018-12-18T22:46:46.880Z,18.70
2018-12-18T22:49:13.568Z,23.80
2018-12-18T22:51:40.260Z,26.43
2018-12-18T22:54:06.872Z,22.37
2018-12-18T22:56:33.531Z,18.27
2018-12-18T22:59:00.171Z,17.80
2018-12-18T23:01:32.689Z,22.70
2018-12-18T23:03:59.314Z,20.87
2018-12-18T23:06:25.939Z,22.00
2018-12-18T23:08:52.573Z,22.03
2018-12-18T23:11:19.192Z,25.20
2018-12-18T23:13:45.845Z,25.70
2018-12-18T23:16:12.457Z,23.50
2018-12-18T23:18:39.116Z,23.80
2018-12-18T23:21:05.760Z,31.07
2018-12-18T23:23:32.395Z,24.73
2018-12-18T23:25:59.027Z,25.97
2018-12-18T23:28:25.644Z,26.80
2018-12-18T23:30:52.326Z,24.43
2018-12-18T23:33:19.040Z,24.90
2018-12-18T23:35:45.693Z,21.90
2018-12-18T23:38:12.332Z,24.80
2018-12-18T23:40:38.949Z,22.17
2018-12-18T23:43:05.589Z,21.77
2018-12-18T23:45:32.285Z,25.20
2018-12-18T23:47:58.904Z,23.07
2018-12-18T23:50:25.544Z,21.37
2018-12-18T23:52:52.156Z,20.67
2018-12-18T23:55:18.805Z,20.63
2018-12-18T23:57:45.441Z,25.37
